Time;durP1;ratioP1;P1;durP2;ratioP2;P2;SDS_P1;SDS_P2;PMS_P1;PMS_P2;Temp;Humidity;BMP_temperature;BMP_pressure;BME280_temperature;BME280_humidity;BME280_pressure;Samples;Min_cycle;Max_cycle;Signal;HPM_P1;HPM_P2
2023/02/11 00:07:03;;;;;;;7.65;2.50;;;7.50;69.30;;;;;;20551185;28;20050;-42
2023/02/11 00:17:04;;;;;;;12.90;3.90;;;7.40;80.70;;;;;;20556217;28;20046;-42
2023/02/11 00:27:05;;;;;;;5.43;2.83;;;7.30;85.30;;;;;;20549429;28;21259;-42
2023/02/11 00:37:06;;;;;;;4.82;2.13;;;7.20;91.60;;;;;;20558879;28;20054;-42
2023/02/11 00:47:07;;;;;;;5.90;3.05;;;7.10;99.50;;;;;;20555965;28;20046;-42
2023/02/11 00:57:08;;;;;;;7.97;2.13;;;7.10;99.50;;;;;;20546045;28;20053;-42
2023/02/11 01:07:09;;;;;;;31.40;4.03;;;7.00;99.90;;;;;;20547730;28;20053;-42
2023/02/11 01:17:10;;;;;;;9.52;2.90;;;7.10;99.90;;;;;;20552431;28;21333;-42
2023/02/11 01:27:11;;;;;;;3.88;1.70;;;7.00;99.90;;;;;;20545178;28;20049;-42
2023/02/11 01:37:12;;;;;;;6.30;2.00;;;7.00;99.90;;;;;;20546548;28;20057;-42
2023/02/11 01:47:13;;;;;;;4.13;1.42;;;6.90;99.90;;;;;;20555605;28;20026;-42
2023/02/11 01:57:23;;;;;;;4.78;1.58;;;6.80;99.90;;;;;;20559780;28;20043;-42
2023/02/11 02:07:36;;;;;;;4.55;1.70;;;6.60;99.90;;;;;;20543270;28;20577;-40
2023/02/11 02:17:43;;;;;;;3.50;1.55;;;6.50;99.90;;;;;;20540783;28;20352;-40
2023/02/11 02:27:47;;;;;;;;;;;6.40;99.90;;;;;;20486076;28;20042;-40
2023/02/11 02:38:04;;;;;;;4.80;1.60;;;6.20;99.90;;;;;;20490922;28;19925;-40
2023/02/11 02:48:05;;;;;;;4.43;1.73;;;6.10;99.90;;;;;;20551935;28;20061;-40
2023/02/11 02:58:25;;;;;;;7.70;3.15;;;6.00;99.90;;;;;;20554495;28;20050;-40
2023/02/11 03:08:46;;;;;;;9.65;2.72;;;5.90;99.90;;;;;;20554804;28;20043;-40
2023/02/11 03:18:58;;;;;;;7.35;2.47;;;5.80;99.90;;;;;;20525356;28;20125;-40
2023/02/11 03:29:02;;;;;;;34.78;4.75;;;5.80;99.90;;;;;;20484247;28;20051;-40
2023/02/11 03:39:05;;;;;;;7.95;2.50;;;5.80;99.90;;;;;;20562364;28;20050;-40
2023/02/11 03:49:12;;;;;;;7.50;3.72;;;5.60;99.90;;;;;;20566296;28;20038;-40
2023/02/11 03:59:13;;;;;;;10.32;4.43;;;5.60;99.90;;;;;;20557760;28;20038;-40
2023/02/11 04:09:15;;;;;;;6.20;3.08;;;5.50;99.90;;;;;;20553779;28;20049;-40
2023/02/11 04:19:16;;;;;;;10.25;3.45;;;5.60;99.90;;;;;;20538759;28;20043;-40
2023/02/11 04:29:18;;;;;;;8.23;3.70;;;5.70;99.90;;;;;;20544745;28;20038;-40
2023/02/11 04:39:19;;;;;;;13.43;5.28;;;5.80;99.90;;;;;;20551257;28;20042;-41
2023/02/11 04:49:20;;;;;;;8.52;3.85;;;5.90;99.90;;;;;;20555890;28;20505;-40
2023/02/11 04:59:21;;;;;;;16.63;5.55;;;6.00;99.90;;;;;;20551275;28;20039;-40
2023/02/11 05:09:22;;;;;;;11.43;5.93;;;6.10;99.90;;;;;;20544704;28;20042;-40
2023/02/11 05:19:24;;;;;;;12.27;4.88;;;6.10;99.90;;;;;;20540637;28;20061;-40
2023/02/11 05:29:25;;;;;;;10.38;5.68;;;6.20;99.90;;;;;;20545828;28;20689;-40
2023/02/11 05:39:26;;;;;;;8.32;3.90;;;6.30;99.90;;;;;;20539952;28;20043;-40
2023/02/11 05:49:27;;;;;;;8.45;4.97;;;6.20;99.90;;;;;;20541626;28;20038;-40
2023/02/11 05:59:28;;;;;;;11.98;5.05;;;6.20;99.90;;;;;;20557989;28;20054;-40
2023/02/11 06:09:29;;;;;;;10.50;5.70;;;6.40;99.90;;;;;;20562101;28;20608;-40
2023/02/11 06:19:30;;;;;;;13.60;4.97;;;6.40;99.90;;;;;;20562762;28;20057;-40
2023/02/11 06:29:31;;;;;;;13.20;5.90;;;6.50;99.90;;;;;;20568175;28;20042;-41
2023/02/11 06:39:33;;;;;;;9.85;5.15;;;6.50;99.90;;;;;;20573228;28;20047;-41
2023/02/11 06:49:34;;;;;;;12.13;6.30;;;6.60;99.90;;;;;;20559819;28;20336;-40
2023/02/11 06:59:35;;;;;;;11.45;6.55;;;6.60;99.90;;;;;;20565383;28;20043;-40
2023/02/11 07:09:36;;;;;;;10.57;5.70;;;6.50;99.90;;;;;;20559507;28;20034;-41
2023/02/11 07:19:37;;;;;;;8.63;5.97;;;6.60;99.90;;;;;;20559865;28;20327;-40
2023/02/11 07:29:40;;;;;;;16.05;6.55;;;6.50;99.90;;;;;;20556357;28;20058;-40
2023/02/11 07:39:41;;;;;;;12.52;7.55;;;6.50;99.90;;;;;;20547024;28;20419;-40
2023/02/11 07:49:42;;;;;;;14.00;7.18;;;6.50;99.90;;;;;;20559436;28;20064;-40
2023/02/11 07:59:43;;;;;;;12.38;6.68;;;6.60;99.90;;;;;;20554966;28;20046;-40
2023/02/11 08:09:45;;;;;;;15.20;7.70;;;6.60;99.90;;;;;;20561037;28;20065;-40
2023/02/11 08:19:46;;;;;;;13.48;6.82;;;6.60;99.90;;;;;;20496712;28;20069;-41
2023/02/11 08:29:47;;;;;;;10.82;6.35;;;6.80;99.90;;;;;;20544079;28;20194;-41
2023/02/11 08:39:50;;;;;;;12.25;7.47;;;6.90;99.90;;;;;;20553558;28;20050;-41
2023/02/11 08:49:50;;;;;;;9.73;5.65;;;7.10;99.90;;;;;;20558996;28;20479;-41
2023/02/11 08:59:52;;;;;;;13.00;7.60;;;7.20;99.90;;;;;;20546983;28;20387;-41
2023/02/11 09:09:53;;;;;;;18.90;8.90;;;7.30;99.90;;;;;;20568557;28;20043;-41
2023/02/11 09:19:54;;;;;;;8.93;5.78;;;7.50;99.90;;;;;;20540036;28;20733;-41
2023/02/11 09:29:55;;;;;;;14.73;7.90;;;7.50;99.90;;;;;;20551635;28;20042;-41
2023/02/11 09:39:56;;;;;;;34.65;8.45;;;7.70;99.90;;;;;;20563952;28;20662;-41
2023/02/11 09:50:13;;;;;;;10.65;5.97;;;7.80;99.90;;;;;;20543019;28;20043;-41
2023/02/11 10:00:17;;;;;;;20.92;9.38;;;8.00;99.90;;;;;;20526795;28;20576;-41
2023/02/11 10:10:38;;;;;;;11.30;6.18;;;8.20;99.90;;;;;;20552503;28;20065;-41
2023/02/11 10:20:48;;;;;;;11.68;5.63;;;8.50;99.90;;;;;;20554954;28;20096;-41
2023/02/11 10:30:58;;;;;;;13.77;6.20;;;8.50;99.90;;;;;;20553834;28;20521;-41
2023/02/11 10:40:59;;;;;;;10.80;5.30;;;8.60;99.90;;;;;;20552711;28;20534;-41
2023/02/11 10:51:40;;;;;;;16.33;5.28;;;8.80;99.90;;;;;;20557222;28;20045;-41
2023/02/11 11:01:50;;;;;;;9.77;4.10;;;9.30;99.90;;;;;;20535735;28;20314;-43
2023/02/11 11:11:52;;;;;;;6.35;3.03;;;9.70;99.90;;;;;;20554471;28;20049;-41
2023/02/11 11:21:55;;;;;;;5.18;3.15;;;9.90;99.90;;;;;;20555570;28;20081;-42
2023/02/11 11:32:00;;;;;;;6.60;2.45;;;10.10;90.50;;;;;;20567905;28;20035;-43
2023/02/11 11:42:04;;;;;;;7.28;2.58;;;10.30;88.00;;;;;;20556865;28;20051;-42
2023/02/11 11:52:45;;;;;;;4.65;1.98;;;10.40;71.10;;;;;;20553868;28;20046;-42
2023/02/11 12:02:56;;;;;;;7.82;3.08;;;10.50;58.10;;;;;;20515989;28;20474;-42
2023/02/11 12:13:37;;;;;;;4.47;1.73;;;10.50;48.40;;;;;;20559641;28;20050;-42
2023/02/11 12:23:56;;;;;;;3.47;1.75;;;10.30;44.30;;;;;;20562299;28;21553;-42
2023/02/11 12:34:29;;;;;;;5.15;2.42;;;10.20;52.20;;;;;;20562770;28;21583;-42
2023/02/11 12:44:49;;;;;;;4.05;1.67;;;10.40;45.40;;;;;;20567936;28;20046;-43
2023/02/11 12:55:08;;;;;;;8.90;3.92;;;10.50;46.40;;;;;;20572594;28;20042;-42
2023/02/11 13:05:15;;;;;;;4.07;1.63;;;10.80;39.30;;;;;;20560075;28;20073;-43
2023/02/11 13:15:17;;;;;;;3.50;1.70;;;10.80;34.80;;;;;;20565387;28;20046;-43
2023/02/11 13:25:39;;;;;;;2.63;1.35;;;10.90;31.80;;;;;;20572059;28;20034;-43
2023/02/11 13:36:07;;;;;;;3.42;1.30;;;10.80;28.80;;;;;;20520175;28;21465;-43
2023/02/11 13:46:11;;;;;;;1.73;1.40;;;10.80;29.90;;;;;;20533490;28;20050;-42
2023/02/11 13:56:26;;;;;;;3.25;1.35;;;10.90;26.10;;;;;;20496556;28;21416;-42
2023/02/11 14:08:57;;;;;;;5.28;1.25;;;10.90;28.70;;;;;;20551472;28;20421;-43
2023/02/11 14:17:07;;;;;;;3.42;2.65;;;10.90;24.30;;;;;;20560153;28;20125;-43
2023/02/11 14:27:20;;;;;;;5.05;1.80;;;10.90;24.70;;;;;;20573409;28;20109;-43
2023/02/11 14:37:46;;;;;;;3.45;1.67;;;10.80;26.40;;;;;;20573218;28;20046;-43
2023/02/11 14:48:07;;;;;;;6.10;2.10;;;10.80;28.10;;;;;;20513412;28;20035;-42
2023/02/11 14:58:16;;;;;;;2.95;1.25;;;10.80;25.10;;;;;;20566658;28;20490;-42
2023/02/11 15:08:17;;;;;;;7.30;1.95;;;10.80;25.00;;;;;;20556857;28;20044;-42
2023/02/11 15:18:21;;;;;;;3.03;1.20;;;10.60;27.70;;;;;;20543667;28;20046;-42
2023/02/11 15:28:34;;;;;;;3.30;1.20;;;10.50;28.20;;;;;;20551953;28;20066;-43
2023/02/11 15:38:35;;;;;;;2.83;1.45;;;10.30;27.80;;;;;;20571361;28;20145;-42
2023/02/11 15:48:41;;;;;;;5.30;2.35;;;10.10;31.00;;;;;;20579006;28;20034;-42
2023/02/11 15:58:46;;;;;;;3.60;1.70;;;10.00;31.90;;;;;;20580364;28;20083;-42
2023/02/11 16:09:20;;;;;;;4.50;2.08;;;9.90;34.10;;;;;;20570716;28;20046;-42
2023/02/11 16:19:23;;;;;;;6.35;2.47;;;9.70;41.40;;;;;;20557851;28;21297;-43
2023/02/11 16:29:27;;;;;;;6.75;2.75;;;9.50;48.60;;;;;;20503602;28;20392;-43
2023/02/11 16:39:28;;;;;;;3.65;1.60;;;9.40;50.40;;;;;;20529917;28;20046;-43
2023/02/11 16:49:34;;;;;;;5.88;2.45;;;9.20;53.50;;;;;;20530641;28;20049;-43
2023/02/11 16:59:35;;;;;;;3.05;1.80;;;9.20;57.50;;;;;;20552073;28;21475;-42
2023/02/11 17:09:36;;;;;;;3.90;2.42;;;9.10;54.80;;;;;;20538668;28;20073;-42
2023/02/11 17:19:38;;;;;;;5.80;2.40;;;9.00;53.10;;;;;;20534805;28;20046;-43
2023/02/11 17:29:39;;;;;;;4.72;2.08;;;8.80;56.00;;;;;;20538291;28;20042;-43
2023/02/11 17:39:41;;;;;;;7.35;2.70;;;8.70;59.00;;;;;;20552836;28;20081;-43
2023/02/11 17:49:42;;;;;;;4.40;2.03;;;8.60;60.90;;;;;;20559517;28;20038;-43
2023/02/11 17:59:43;;;;;;;10.50;4.68;;;8.70;63.60;;;;;;20562910;28;20516;-43
2023/02/11 18:09:44;;;;;;;7.22;4.50;;;8.60;71.30;;;;;;20557135;28;20038;-42
2023/02/11 18:19:46;;;;;;;7.00;4.15;;;8.60;86.70;;;;;;20548099;28;20066;-42
2023/02/11 18:29:47;;;;;;;5.93;3.60;;;8.60;87.70;;;;;;20555498;28;20359;-42
2023/02/11 18:39:49;;;;;;;5.15;2.83;;;8.50;90.00;;;;;;20557535;28;20051;-42
2023/02/11 18:49:50;;;;;;;6.25;2.75;;;8.50;90.00;;;;;;20554100;28;20042;-42
2023/02/11 18:59:51;;;;;;;6.28;2.50;;;8.40;88.10;;;;;;20545492;28;20046;-42
2023/02/11 19:09:52;;;;;;;4.22;2.58;;;8.40;92.50;;;;;;20543760;28;20525;-42
2023/02/11 19:19:53;;;;;;;6.22;2.83;;;8.30;93.20;;;;;;20556194;28;20047;-42
2023/02/11 19:29:54;;;;;;;4.72;1.90;;;8.30;95.80;;;;;;20548981;28;20049;-42
2023/02/11 19:39:55;;;;;;;4.38;2.40;;;8.30;99.90;;;;;;20546840;28;20054;-42
2023/02/11 19:49:56;;;;;;;4.53;3.38;;;8.30;99.90;;;;;;20552578;28;20045;-42
2023/02/11 19:59:57;;;;;;;14.88;4.97;;;8.20;99.90;;;;;;20556289;28;20433;-42
2023/02/11 20:09:58;;;;;;;4.63;2.30;;;8.20;99.90;;;;;;20554685;28;20038;-42
2023/02/11 20:19:59;;;;;;;3.13;2.13;;;8.20;99.90;;;;;;20537756;28;20058;-42
2023/02/11 20:30:01;;;;;;;5.72;2.78;;;8.20;99.90;;;;;;20549053;28;20073;-42
2023/02/11 20:40:02;;;;;;;6.25;3.22;;;8.10;99.90;;;;;;20541545;28;20046;-42
2023/02/11 20:50:05;;;;;;;10.88;3.95;;;8.10;99.90;;;;;;20543155;28;20054;-42
2023/02/11 21:00:07;;;;;;;7.47;3.90;;;8.00;99.90;;;;;;20548714;28;20055;-42
2023/02/11 21:10:09;;;;;;;6.15;3.15;;;8.10;99.90;;;;;;20540175;28;20537;-42
2023/02/11 21:20:10;;;;;;;15.73;5.22;;;8.10;99.90;;;;;;20548410;28;20047;-42
2023/02/11 21:30:12;;;;;;;7.03;3.90;;;8.10;99.90;;;;;;20552562;28;20035;-42
2023/02/11 21:40:14;;;;;;;6.20;3.53;;;8.10;99.90;;;;;;20546690;28;20476;-42
2023/02/11 21:50:15;;;;;;;7.32;3.50;;;8.10;99.90;;;;;;20550778;28;20046;-42
2023/02/11 22:00:16;;;;;;;5.95;3.03;;;8.10;99.90;;;;;;20565342;28;20042;-42
2023/02/11 22:10:18;;;;;;;7.45;2.65;;;8.10;99.90;;;;;;20551320;28;20422;-42
2023/02/11 22:20:19;;;;;;;7.55;5.10;;;8.10;99.90;;;;;;20576588;28;20035;-42
2023/02/11 22:30:20;;;;;;;8.65;2.92;;;8.10;99.90;;;;;;20563641;28;20498;-42
2023/02/11 22:40:22;;;;;;;9.20;3.58;;;8.10;99.90;;;;;;20555994;28;20042;-42
2023/02/11 22:50:23;;;;;;;6.70;3.50;;;8.10;99.90;;;;;;20554350;28;20290;-42
2023/02/11 23:00:29;;;;;;;8.57;4.13;;;8.10;99.90;;;;;;20556852;28;20046;-42
2023/02/11 23:10:30;;;;;;;8.25;3.42;;;8.10;99.90;;;;;;20565519;28;20449;-42
2023/02/11 23:20:37;;;;;;;10.77;5.55;;;8.10;99.90;;;;;;20565381;28;20038;-42
2023/02/11 23:30:40;;;;;;;7.60;3.23;;;8.10;99.90;;;;;;20561219;28;20586;-42
2023/02/11 23:40:41;;;;;;;8.27;3.85;;;8.10;99.90;;;;;;20530967;28;20046;-42
2023/02/11 23:50:43;;;;;;;10.57;4.85;;;8.10;99.90;;;;;;20552627;28;20053;-42
